Time;durP1;ratioP1;P1;durP2;ratioP2;P2;SDS_P1;SDS_P2;PMS_P1;PMS_P2;Temp;Humidity;BMP_temperature;BMP_pressure;BME280_temperature;BME280_humidity;BME280_pressure;Samples;Min_cycle;Max_cycle;Signal;HPM_P1;HPM_P2
2023/08/22 00:02:29;;;;;;;7.15;5.97;;;24.40;1.00;;;;;;7390764;19;20035;-72
2023/08/22 00:05:02;;;;;;;7.80;6.03;;;24.30;1.00;;;;;;7390462;19;20042;-71
2023/08/22 00:07:32;;;;;;;7.95;6.70;;;24.20;1.00;;;;;;7390096;19;20019;-71
2023/08/22 00:10:03;;;;;;;9.05;6.25;;;24.20;1.00;;;;;;7389033;19;20035;-71
2023/08/22 00:12:33;;;;;;;8.13;6.57;;;24.20;1.00;;;;;;7389773;19;20011;-71
2023/08/22 00:15:07;;;;;;;13.20;6.53;;;24.10;1.00;;;;;;7392120;19;20019;-71
2023/08/22 00:17:39;;;;;;;7.38;6.40;;;24.10;1.00;;;;;;7389580;19;20108;-69
2023/08/22 00:20:13;;;;;;;8.15;6.50;;;24.10;1.00;;;;;;7388836;19;20019;-71
2023/08/22 00:22:43;;;;;;;7.95;6.68;;;23.90;1.00;;;;;;7389138;19;20014;-71
2023/08/22 00:25:14;;;;;;;10.45;6.55;;;24.00;1.00;;;;;;7391482;19;20027;-71
2023/08/22 00:27:44;;;;;;;9.63;6.50;;;23.90;1.00;;;;;;7389259;19;20019;-71
2023/08/22 00:30:14;;;;;;;7.60;6.68;;;23.80;1.00;;;;;;7388546;19;20018;-69
2023/08/22 00:32:44;;;;;;;8.98;5.85;;;23.80;1.00;;;;;;7389167;19;20019;-70
2023/08/22 00:35:17;;;;;;;7.93;5.80;;;23.70;1.00;;;;;;7391319;19;20018;-70
2023/08/22 00:37:47;;;;;;;8.30;5.57;;;23.70;1.00;;;;;;7388736;19;20463;-71
2023/08/22 00:40:16;;;;;;;9.82;6.38;;;23.70;1.00;;;;;;7388560;19;20028;-71
2023/08/22 00:42:46;;;;;;;7.80;6.10;;;23.80;1.00;;;;;;7387366;19;20014;-71
2023/08/22 00:45:16;;;;;;;8.30;6.32;;;23.80;1.00;;;;;;7390463;19;20035;-71
2023/08/22 00:47:46;;;;;;;7.82;6.28;;;23.80;1.00;;;;;;7388499;19;20597;-71
2023/08/22 00:50:19;;;;;;;8.27;6.47;;;23.60;1.00;;;;;;7387502;19;20028;-71
2023/08/22 00:52:49;;;;;;;8.27;6.57;;;23.60;1.00;;;;;;7388909;19;20399;-70
2023/08/22 00:55:19;;;;;;;8.50;6.25;;;23.60;1.00;;;;;;7390736;19;20018;-70
2023/08/22 00:57:49;;;;;;;8.20;6.97;;;23.60;1.00;;;;;;7387684;19;20035;-70
2023/08/22 01:00:20;;;;;;;9.10;7.05;;;23.60;1.00;;;;;;7388136;19;20011;-70
2023/08/22 01:02:50;;;;;;;11.38;7.00;;;23.60;1.00;;;;;;7386692;19;20011;-71
2023/08/22 01:05:23;;;;;;;10.85;7.25;;;23.40;1.00;;;;;;7390684;19;20014;-70
2023/08/22 01:07:59;;;;;;;8.98;6.55;;;23.40;1.00;;;;;;7388300;19;20030;-70
2023/08/22 01:10:33;;;;;;;10.93;7.50;;;23.40;1.00;;;;;;7386707;19;20260;-69
2023/08/22 01:13:10;;;;;;;9.15;6.90;;;23.40;1.00;;;;;;7388017;19;20031;-71
2023/08/22 01:15:43;;;;;;;12.55;7.88;;;23.40;1.00;;;;;;7390141;19;20014;-71
2023/08/22 01:18:15;;;;;;;12.82;7.22;;;23.30;1.00;;;;;;7387854;19;20014;-71
2023/08/22 01:20:48;;;;;;;10.90;7.05;;;23.30;1.00;;;;;;7385328;19;20369;-69
2023/08/22 01:23:20;;;;;;;9.63;7.10;;;23.20;1.00;;;;;;7385643;19;20015;-70
2023/08/22 01:25:50;;;;;;;7.47;6.78;;;23.20;1.00;;;;;;7391540;19;20018;-70
2023/08/22 01:28:26;;;;;;;11.77;6.72;;;23.20;1.00;;;;;;7387163;19;20044;-70
2023/08/22 01:31:01;;;;;;;8.15;6.93;;;23.30;1.00;;;;;;7386532;19;20478;-71
2023/08/22 01:33:39;;;;;;;9.48;7.50;;;23.20;1.00;;;;;;7387285;19;20014;-70
2023/08/22 01:36:11;;;;;;;10.85;7.38;;;23.20;1.00;;;;;;7391012;19;20064;-70
2023/08/22 01:38:46;;;;;;;8.82;7.28;;;23.10;1.00;;;;;;7386846;19;20577;-70
2023/08/22 01:41:18;;;;;;;9.50;7.18;;;23.20;1.00;;;;;;7385973;19;20018;-70
2023/08/22 01:43:48;;;;;;;11.55;7.68;;;23.10;1.00;;;;;;7386571;19;20035;-70
2023/08/22 01:46:18;;;;;;;9.38;6.75;;;23.10;1.00;;;;;;7390507;19;20479;-69
2023/08/22 01:48:48;;;;;;;10.02;7.60;;;23.00;1.00;;;;;;7386194;19;20018;-70
2023/08/22 01:51:18;;;;;;;8.43;6.78;;;23.00;1.00;;;;;;7386231;19;20027;-71
2023/08/22 01:53:51;;;;;;;9.02;7.30;;;23.00;1.00;;;;;;7387067;19;20051;-70
2023/08/22 01:56:21;;;;;;;8.98;7.45;;;23.00;1.00;;;;;;7391520;19;20019;-71
2023/08/22 01:58:51;;;;;;;9.93;7.35;;;22.90;1.00;;;;;;7385712;19;20074;-69
2023/08/22 02:01:22;;;;;;;8.90;7.35;;;22.90;1.00;;;;;;7385345;19;20031;-70
2023/08/22 02:03:52;;;;;;;8.57;7.68;;;22.80;1.00;;;;;;7386258;19;20020;-71
2023/08/22 02:06:22;;;;;;;10.50;7.85;;;22.70;1.00;;;;;;7390840;19;20025;-71
2023/08/22 02:08:55;;;;;;;8.27;7.15;;;22.80;1.00;;;;;;7385995;19;20055;-70
2023/08/22 02:11:25;;;;;;;8.82;7.25;;;22.70;1.00;;;;;;7382465;19;20098;-70
2023/08/22 02:13:55;;;;;;;10.45;7.95;;;22.70;1.00;;;;;;7385885;19;20042;-70
2023/08/22 02:16:25;;;;;;;10.27;7.53;;;22.70;1.00;;;;;;7390757;19;20014;-70
2023/08/22 02:18:56;;;;;;;9.25;6.95;;;22.70;1.00;;;;;;7386036;19;20054;-70
2023/08/22 02:21:26;;;;;;;9.40;7.28;;;22.60;1.00;;;;;;7384034;19;20023;-71
2023/08/22 02:23:58;;;;;;;9.25;7.53;;;22.70;1.00;;;;;;7381399;19;20039;-71
2023/08/22 02:26:29;;;;;;;12.18;7.78;;;22.60;1.00;;;;;;7390470;19;20018;-70
2023/08/22 02:28:59;;;;;;;10.77;7.90;;;22.60;1.00;;;;;;7390624;19;20034;-70
2023/08/22 02:31:29;;;;;;;11.70;7.43;;;22.60;1.00;;;;;;7390787;19;20035;-70
2023/08/22 02:33:59;;;;;;;10.85;7.05;;;22.50;1.00;;;;;;7392281;19;20019;-69
2023/08/22 02:36:29;;;;;;;9.63;6.70;;;22.50;1.00;;;;;;7396870;19;20090;-70
2023/08/22 02:39:02;;;;;;;8.20;6.95;;;22.40;1.00;;;;;;7393223;19;20014;-71
2023/08/22 02:41:32;;;;;;;7.20;6.50;;;22.50;1.00;;;;;;7390545;19;20019;-70
2023/08/22 02:44:02;;;;;;;10.18;6.70;;;22.60;1.00;;;;;;7390357;19;20019;-71
2023/08/22 02:46:32;;;;;;;9.38;7.53;;;22.60;1.00;;;;;;7397540;19;20172;-71
2023/08/22 02:49:02;;;;;;;9.10;7.43;;;22.40;1.00;;;;;;7392092;19;20011;-70
2023/08/22 02:51:33;;;;;;;12.23;7.70;;;22.40;1.00;;;;;;7390632;19;20014;-69
2023/08/22 02:54:05;;;;;;;9.52;6.95;;;22.40;1.00;;;;;;7392769;19;20006;-70
2023/08/22 02:56:35;;;;;;;7.53;6.05;;;22.40;1.00;;;;;;7396752;19;20022;-71
2023/08/22 02:59:05;;;;;;;7.95;6.65;;;22.30;1.00;;;;;;7392182;19;20574;-71
2023/08/22 03:01:35;;;;;;;9.77;7.45;;;22.40;1.00;;;;;;7389894;19;20018;-71
2023/08/22 03:04:06;;;;;;;8.95;7.68;;;22.30;1.00;;;;;;7389806;19;20014;-71
2023/08/22 03:06:35;;;;;;;8.85;7.85;;;22.30;1.00;;;;;;7396398;19;20022;-71
2023/08/22 03:09:08;;;;;;;9.05;7.78;;;22.30;1.00;;;;;;7391908;19;20022;-71
2023/08/22 03:11:38;;;;;;;9.40;7.53;;;22.20;1.00;;;;;;7389050;19;20039;-71
2023/08/22 03:14:08;;;;;;;9.13;7.45;;;22.20;1.00;;;;;;7391570;19;20014;-71
2023/08/22 03:16:38;;;;;;;11.85;7.90;;;22.20;1.00;;;;;;7396333;19;20018;-71
2023/08/22 03:19:08;;;;;;;12.70;8.35;;;22.20;1.00;;;;;;7392412;19;20015;-71
2023/08/22 03:21:38;;;;;;;9.10;7.75;;;22.20;1.00;;;;;;7393163;19;20022;-69
2023/08/22 03:24:11;;;;;;;13.10;8.52;;;22.10;1.00;;;;;;7388543;19;20014;-71
2023/08/22 03:26:41;;;;;;;12.35;8.93;;;22.10;1.00;;;;;;7394021;19;20511;-70
2023/08/22 03:29:11;;;;;;;10.18;8.18;;;22.10;1.00;;;;;;7389825;19;20636;-70
2023/08/22 03:31:40;;;;;;;10.32;8.85;;;22.00;1.00;;;;;;7389069;19;20019;-71
2023/08/22 03:34:10;;;;;;;11.68;8.45;;;22.00;1.00;;;;;;7390472;19;20027;-70
2023/08/22 03:36:40;;;;;;;9.57;8.07;;;22.00;1.00;;;;;;7394515;19;20479;-71
2023/08/22 03:39:13;;;;;;;12.38;8.48;;;22.10;1.00;;;;;;7388779;19;20035;-70
2023/08/22 03:41:43;;;;;;;11.93;7.63;;;22.20;1.00;;;;;;7388920;19;20018;-70
2023/08/22 03:44:13;;;;;;;14.60;8.90;;;22.20;1.00;;;;;;7388744;19;20367;-71
2023/08/22 03:46:42;;;;;;;8.38;7.22;;;22.30;1.00;;;;;;7394744;19;20186;-70
2023/08/22 03:49:12;;;;;;;9.20;7.70;;;22.30;1.00;;;;;;7389795;19;20021;-70
2023/08/22 03:51:42;;;;;;;9.75;7.15;;;22.20;1.00;;;;;;7388925;19;20014;-70
2023/08/22 03:54:15;;;;;;;11.82;7.78;;;22.20;1.00;;;;;;7390004;19;20006;-70
2023/08/22 03:56:45;;;;;;;8.82;7.25;;;22.20;1.00;;;;;;7394649;19;20094;-71
2023/08/22 03:59:15;;;;;;;10.80;7.30;;;22.20;1.00;;;;;;7388513;19;20021;-70
2023/08/22 04:01:45;;;;;;;10.00;7.93;;;22.10;1.00;;;;;;7387857;19;20094;-71
2023/08/22 04:04:16;;;;;;;13.05;7.72;;;22.10;1.00;;;;;;7388321;19;20035;-71
2023/08/22 04:06:46;;;;;;;11.20;7.78;;;22.10;1.00;;;;;;7394512;19;20019;-71
2023/08/22 04:09:19;;;;;;;12.10;7.50;;;22.20;1.00;;;;;;7389662;19;20019;-71
2023/08/22 04:11:49;;;;;;;10.85;7.63;;;22.20;1.00;;;;;;7388354;19;20006;-70
2023/08/22 04:14:19;;;;;;;11.50;7.90;;;22.10;1.00;;;;;;7386712;19;20026;-70
2023/08/22 04:16:48;;;;;;;14.18;7.95;;;22.10;1.00;;;;;;7393727;19;20486;-70
2023/08/22 04:19:18;;;;;;;11.27;8.40;;;22.10;1.00;;;;;;7389465;19;20043;-70
2023/08/22 04:21:48;;;;;;;11.30;8.00;;;22.20;1.00;;;;;;7392128;19;20044;-70
2023/08/22 04:24:21;;;;;;;8.93;7.65;;;22.10;1.00;;;;;;7385449;19;20516;-70
2023/08/22 04:26:51;;;;;;;10.90;7.72;;;22.10;1.00;;;;;;7393458;19;20014;-69
2023/08/22 04:29:22;;;;;;;9.52;7.68;;;22.20;1.00;;;;;;7388882;19;20014;-70
2023/08/22 04:31:52;;;;;;;10.30;7.93;;;22.10;1.00;;;;;;7387667;19;20095;-70
2023/08/22 04:34:22;;;;;;;12.90;7.53;;;22.20;1.00;;;;;;7388412;19;20026;-70
2023/08/22 04:36:52;;;;;;;13.60;8.38;;;22.20;1.00;;;;;;7392725;19;20014;-71
2023/08/22 04:39:25;;;;;;;8.30;7.32;;;22.20;1.00;;;;;;7387743;19;20022;-70
2023/08/22 04:41:55;;;;;;;9.98;7.53;;;22.20;1.00;;;;;;7387666;19;20031;-71
2023/08/22 04:44:25;;;;;;;11.88;7.75;;;22.30;1.00;;;;;;7388724;19;20054;-70
2023/08/22 04:46:55;;;;;;;9.35;7.68;;;22.30;1.00;;;;;;7393240;19;20014;-71
2023/08/22 04:49:25;;;;;;;10.27;8.07;;;22.60;1.00;;;;;;7388908;19;20030;-70
2023/08/22 04:51:55;;;;;;;9.38;7.93;;;23.10;1.00;;;;;;7386084;19;20031;-70
2023/08/22 04:54:28;;;;;;;9.93;7.70;;;23.50;1.00;;;;;;7388471;19;20038;-70
2023/08/22 04:56:58;;;;;;;8.45;7.53;;;23.80;1.00;;;;;;7393482;19;20018;-71
2023/08/22 04:59:30;;;;;;;11.77;7.75;;;23.60;1.00;;;;;;7389312;19;20014;-71
2023/08/22 05:02:00;;;;;;;10.85;7.85;;;23.00;1.00;;;;;;7388592;19;20451;-70
2023/08/22 05:04:30;;;;;;;11.07;7.40;;;22.80;1.00;;;;;;7387374;19;20014;-72
2023/08/22 05:07:00;;;;;;;10.77;7.63;;;22.70;1.00;;;;;;7392663;19;20036;-70
2023/08/22 05:09:33;;;;;;;9.52;7.78;;;22.60;1.00;;;;;;7387409;19;20018;-71
2023/08/22 05:12:03;;;;;;;10.38;8.00;;;22.50;1.00;;;;;;7388476;19;20018;-70
2023/08/22 05:14:36;;;;;;;10.63;6.97;;;22.70;1.00;;;;;;7387271;19;20023;-69
2023/08/22 05:17:07;;;;;;;11.60;8.48;;;22.70;1.00;;;;;;7392781;19;20035;-70
2023/08/22 05:19:37;;;;;;;12.95;7.72;;;22.70;1.00;;;;;;7387800;19;20348;-70
2023/08/22 05:22:08;;;;;;;10.57;8.48;;;23.60;1.00;;;;;;7392626;19;20028;-70
2023/08/22 05:24:40;;;;;;;9.68;8.23;;;25.10;1.00;;;;;;7387298;19;20018;-70
2023/08/22 05:27:13;;;;;;;10.02;7.82;;;25.60;1.00;;;;;;7392018;19;20018;-70
2023/08/22 05:29:43;;;;;;;7.88;7.07;;;24.60;1.00;;;;;;7387862;19;20157;-69
2023/08/22 05:32:13;;;;;;;9.18;7.07;;;23.80;1.00;;;;;;7387994;19;20047;-70
2023/08/22 05:34:43;;;;;;;9.15;7.43;;;24.00;1.00;;;;;;7387682;19;20027;-71
2023/08/22 05:37:13;;;;;;;11.00;7.45;;;25.80;1.00;;;;;;7391658;19;20057;-70
2023/08/22 05:39:45;;;;;;;10.00;8.05;;;26.30;1.00;;;;;;7385469;19;20478;-71
2023/08/22 05:42:15;;;;;;;11.98;7.90;;;27.70;1.00;;;;;;7388150;19;20010;-70
2023/08/22 05:44:45;;;;;;;10.40;7.80;;;26.60;1.00;;;;;;7386670;19;20015;-69
2023/08/22 05:47:15;;;;;;;11.52;7.65;;;25.00;1.00;;;;;;7389007;19;20039;-72
2023/08/22 05:49:45;;;;;;;10.57;7.53;;;24.50;1.00;;;;;;7383008;19;20039;-70
2023/08/22 05:52:15;;;;;;;8.90;7.63;;;24.30;1.00;;;;;;7382819;19;20018;-71
2023/08/22 05:54:48;;;;;;;12.07;8.30;;;24.30;1.00;;;;;;7381276;19;20025;-70
2023/08/22 05:57:18;;;;;;;12.30;7.53;;;24.20;1.00;;;;;;7387303;19;20772;-71
2023/08/22 05:59:48;;;;;;;9.55;7.55;;;24.20;1.00;;;;;;7382713;19;20022;-71
2023/08/22 06:02:18;;;;;;;8.98;7.60;;;24.50;1.00;;;;;;7382332;19;20007;-71
2023/08/22 06:04:48;;;;;;;10.35;7.85;;;24.70;1.00;;;;;;7392895;19;20010;-71
2023/08/22 06:07:18;;;;;;;9.25;7.53;;;25.00;1.00;;;;;;7396784;19;20057;-71
2023/08/22 06:09:51;;;;;;;8.27;7.47;;;24.80;1.00;;;;;;7393332;19;20014;-69
2023/08/22 06:12:21;;;;;;;13.68;8.80;;;24.90;1.00;;;;;;7394968;19;20019;-72
2023/08/22 06:14:51;;;;;;;14.80;9.15;;;24.80;1.00;;;;;;7393462;19;20025;-73
2023/08/22 06:17:21;;;;;;;11.77;8.68;;;24.80;1.00;;;;;;7398146;19;20127;-70
2023/08/22 06:19:52;;;;;;;12.35;9.27;;;25.00;1.00;;;;;;7393869;19;20007;-70
2023/08/22 06:22:22;;;;;;;17.40;9.00;;;24.50;1.00;;;;;;7394526;19;20023;-71
2023/08/22 06:24:54;;;;;;;12.68;7.88;;;24.90;1.00;;;;;;7393113;19;20082;-70
2023/08/22 06:27:24;;;;;;;9.32;7.88;;;25.00;1.00;;;;;;7396903;19;20031;-72
2023/08/22 06:29:54;;;;;;;12.80;7.70;;;25.40;1.00;;;;;;7392667;19;20042;-72
2023/08/22 06:32:24;;;;;;;12.85;7.93;;;25.50;1.00;;;;;;7394531;19;20043;-71
2023/08/22 06:34:54;;;;;;;13.55;7.75;;;25.60;1.00;;;;;;7393432;19;20010;-71
2023/08/22 06:37:24;;;;;;;10.70;8.27;;;25.70;1.00;;;;;;7397916;19;20025;-71
2023/08/22 06:39:57;;;;;;;16.05;8.05;;;25.70;1.00;;;;;;7392360;19;20035;-71
2023/08/22 06:42:27;;;;;;;9.02;7.50;;;25.80;1.00;;;;;;7393220;19;20025;-70
2023/08/22 06:44:56;;;;;;;10.85;8.07;;;25.80;1.00;;;;;;7392606;19;20022;-71
2023/08/22 06:47:27;;;;;;;11.80;8.30;;;25.70;1.00;;;;;;7397082;19;20043;-72
2023/08/22 06:49:57;;;;;;;10.32;8.68;;;25.70;1.00;;;;;;7392133;19;20010;-71
2023/08/22 06:52:27;;;;;;;7.60;6.90;;;25.70;1.00;;;;;;7392453;19;20014;-71
2023/08/22 06:55:00;;;;;;;10.60;7.65;;;25.70;1.00;;;;;;7391965;19;20011;-71
2023/08/22 06:57:30;;;;;;;8.60;7.30;;;25.80;1.00;;;;;;7397579;19;20014;-71
2023/08/22 07:00:13;;;;;;;9.60;7.28;;;25.70;1.00;;;;;;7392898;19;20026;-71
2023/08/22 07:02:43;;;;;;;8.70;7.00;;;25.50;1.00;;;;;;7392998;19;20015;-71
2023/08/22 07:05:14;;;;;;;8.65;7.00;;;25.60;1.00;;;;;;7389077;19;20010;-70
2023/08/22 07:07:45;;;;;;;10.27;6.88;;;25.80;1.00;;;;;;7392238;19;20014;-71
2023/08/22 07:10:17;;;;;;;8.15;6.05;;;25.80;1.00;;;;;;7391408;19;20533;-71
2023/08/22 07:12:47;;;;;;;8.63;7.00;;;26.10;1.00;;;;;;7392477;19;20018;-71
2023/08/22 07:15:17;;;;;;;7.60;6.47;;;25.80;1.00;;;;;;7391531;19;20086;-71
2023/08/22 07:17:47;;;;;;;7.43;5.47;;;25.70;1.00;;;;;;7392046;19;20062;-71
2023/08/22 07:20:18;;;;;;;8.85;6.40;;;25.70;1.00;;;;;;7391260;19;20025;-71
2023/08/22 07:22:48;;;;;;;7.65;6.72;;;26.20;1.00;;;;;;7390955;19;20078;-71
2023/08/22 07:25:21;;;;;;;8.55;6.35;;;25.60;1.00;;;;;;7390982;19;20019;-72
2023/08/22 07:27:51;;;;;;;9.52;6.75;;;26.30;1.00;;;;;;7391840;19;20060;-71
2023/08/22 07:30:21;;;;;;;9.23;6.38;;;26.40;1.00;;;;;;7391149;19;20019;-70
2023/08/22 07:32:51;;;;;;;7.60;6.47;;;25.60;1.00;;;;;;7392263;19;20086;-71
2023/08/22 07:35:21;;;;;;;8.05;6.05;;;26.00;1.00;;;;;;7391449;19;20014;-70
2023/08/22 07:37:51;;;;;;;6.93;5.68;;;26.50;1.00;;;;;;7391599;19;20030;-71
2023/08/22 07:40:23;;;;;;;10.15;6.78;;;26.70;1.00;;;;;;7389840;19;20085;-71
2023/08/22 07:42:53;;;;;;;7.95;6.05;;;26.60;1.00;;;;;;7393764;19;20031;-71
2023/08/22 07:45:23;;;;;;;8.70;6.72;;;26.70;1.00;;;;;;7390675;19;20014;-71
2023/08/22 07:47:55;;;;;;;8.75;6.30;;;27.00;1.00;;;;;;7391145;19;20624;-70
2023/08/22 07:50:25;;;;;;;8.73;6.10;;;27.10;1.00;;;;;;7390459;19;20038;-71
2023/08/22 07:52:55;;;;;;;8.25;6.32;;;26.80;1.00;;;;;;7391065;19;20089;-71
2023/08/22 07:55:28;;;;;;;8.35;6.00;;;27.00;1.00;;;;;;7390248;19;20018;-71
2023/08/22 07:57:58;;;;;;;7.90;5.70;;;26.80;1.00;;;;;;7391228;19;20015;-71
2023/08/22 08:00:28;;;;;;;6.43;5.32;;;27.20;1.00;;;;;;7390874;19;20428;-71
2023/08/22 08:02:58;;;;;;;6.03;4.90;;;26.80;1.00;;;;;;7388988;19;20029;-71
2023/08/22 08:05:28;;;;;;;5.93;5.22;;;27.30;1.00;;;;;;7389490;19;20010;-71
2023/08/22 08:07:58;;;;;;;6.10;5.20;;;27.60;1.00;;;;;;7390593;19;20028;-72
2023/08/22 08:10:31;;;;;;;8.50;5.20;;;27.60;1.00;;;;;;7389085;19;20035;-71
2023/08/22 08:13:00;;;;;;;7.93;5.15;;;27.30;1.00;;;;;;7390664;19;20414;-71
2023/08/22 08:15:30;;;;;;;7.90;5.28;;;27.40;1.00;;;;;;7390262;19;20013;-70
2023/08/22 08:18:01;;;;;;;5.88;4.95;;;27.30;1.00;;;;;;7389594;19;20074;-70
2023/08/22 08:20:31;;;;;;;6.78;4.60;;;27.50;1.00;;;;;;7389692;19;20800;-71
2023/08/22 08:23:01;;;;;;;7.60;4.95;;;27.60;1.00;;;;;;7389816;19;20102;-71
2023/08/22 08:25:33;;;;;;;7.63;4.53;;;28.10;1.00;;;;;;7388147;19;20010;-70
2023/08/22 08:28:04;;;;;;;5.63;4.38;;;27.90;1.00;;;;;;7389954;19;20035;-71
2023/08/22 08:30:34;;;;;;;6.50;4.80;;;27.60;1.00;;;;;;7388171;19;20377;-71
2023/08/22 08:33:06;;;;;;;5.32;4.32;;;27.40;1.00;;;;;;7389522;19;20020;-71
2023/08/22 08:35:37;;;;;;;5.28;4.20;;;27.90;1.00;;;;;;7389518;19;20014;-71
2023/08/22 08:38:06;;;;;;;5.88;4.50;;;27.60;1.00;;;;;;7390257;19;20038;-71
2023/08/22 08:40:40;;;;;;;7.20;5.25;;;27.90;1.00;;;;;;7387834;19;20024;-70
2023/08/22 08:43:10;;;;;;;9.30;4.75;;;27.90;1.00;;;;;;7389165;19;20073;-71
2023/08/22 08:45:42;;;;;;;7.00;4.10;;;28.20;1.00;;;;;;7389649;19;20486;-71
2023/08/22 08:48:12;;;;;;;5.45;4.75;;;28.30;1.00;;;;;;7389863;19;20077;-71
2023/08/22 08:50:42;;;;;;;4.85;4.45;;;27.90;1.00;;;;;;7392397;19;20566;-71
2023/08/22 08:53:12;;;;;;;5.60;4.75;;;27.90;1.00;;;;;;7391347;19;20761;-70
2023/08/22 08:55:47;;;;;;;7.05;4.65;;;27.70;1.00;;;;;;7390474;19;20018;-70
2023/08/22 08:58:17;;;;;;;7.05;4.32;;;27.80;1.00;;;;;;7387688;19;20040;-71
2023/08/22 09:00:48;;;;;;;5.90;4.63;;;28.00;1.00;;;;;;7387724;19;20018;-71
2023/08/22 09:03:18;;;;;;;10.43;4.97;;;28.10;1.00;;;;;;7388328;19;20006;-70
2023/08/22 09:05:49;;;;;;;5.38;3.75;;;28.30;1.00;;;;;;7388547;19;20016;-71
2023/08/22 09:08:20;;;;;;;7.75;4.25;;;28.80;1.00;;;;;;7387858;19;20112;-71
2023/08/22 09:10:55;;;;;;;9.55;3.97;;;28.40;1.00;;;;;;7387797;19;20478;-70
2023/08/22 09:13:28;;;;;;;6.85;4.75;;;28.60;1.00;;;;;;7388076;19;20098;-72
2023/08/22 09:16:18;;;;;;;4.35;3.45;;;28.90;1.00;;;;;;7388903;19;20011;-70
2023/08/22 09:18:48;;;;;;;5.45;4.07;;;28.50;1.00;;;;;;7388896;19;20463;-70
2023/08/22 09:21:19;;;;;;;7.72;4.43;;;28.50;1.00;;;;;;7387616;19;20022;-71
2023/08/22 09:23:49;;;;;;;5.97;4.38;;;28.40;1.00;;;;;;7388176;19;20018;-71
2023/08/22 09:26:25;;;;;;;6.95;3.65;;;29.00;1.00;;;;;;7389128;19;20349;-71
2023/08/22 09:28:56;;;;;;;8.98;4.47;;;29.10;1.00;;;;;;7388603;19;20039;-71
2023/08/22 09:31:26;;;;;;;7.00;3.22;;;29.10;1.00;;;;;;7386660;19;20686;-71
2023/08/22 09:33:56;;;;;;;11.02;3.70;;;29.20;1.00;;;;;;7388065;19;20019;-70
2023/08/22 09:36:26;;;;;;;5.25;3.35;;;29.00;1.00;;;;;;7389591;19;20050;-70
2023/08/22 09:38:57;;;;;;;6.75;4.22;;;28.80;1.00;;;;;;7396143;19;20021;-70
2023/08/22 09:41:31;;;;;;;10.90;4.13;;;29.10;1.00;;;;;;7393306;19;20010;-70
2023/08/22 09:44:05;;;;;;;9.10;4.05;;;29.30;1.00;;;;;;7395633;19;20018;-71
2023/08/22 09:46:37;;;;;;;9.18;4.53;;;28.50;1.00;;;;;;7397116;19;20035;-70
2023/08/22 09:49:09;;;;;;;5.70;3.85;;;28.80;1.00;;;;;;7395327;19;20485;-70
2023/08/22 09:51:41;;;;;;;6.97;4.18;;;29.30;1.00;;;;;;7392901;19;20632;-70
2023/08/22 09:54:12;;;;;;;5.50;4.07;;;29.40;1.00;;;;;;7394755;19;20063;-71
2023/08/22 09:56:45;;;;;;;10.05;4.10;;;29.80;1.00;;;;;;7395939;19;20042;-70
2023/08/22 09:59:16;;;;;;;7.20;5.25;;;29.90;1.00;;;;;;7393922;19;20090;-70
2023/08/22 10:01:47;;;;;;;6.10;5.22;;;30.20;1.00;;;;;;7392875;19;20011;-70
2023/08/22 10:04:19;;;;;;;7.45;4.38;;;29.30;1.00;;;;;;7395349;19;20039;-72
2023/08/22 10:06:50;;;;;;;5.38;4.15;;;29.60;1.00;;;;;;7395334;19;20014;-71
2023/08/22 10:09:24;;;;;;;5.25;4.50;;;29.80;1.00;;;;;;7397912;19;20017;-71
2023/08/22 10:12:00;;;;;;;6.95;4.65;;;29.50;1.00;;;;;;7396834;19;20014;-71
2023/08/22 10:14:35;;;;;;;6.43;4.15;;;29.70;1.00;;;;;;7394587;19;20035;-71
2023/08/22 10:17:05;;;;;;;4.78;3.75;;;30.10;1.00;;;;;;7396838;19;20024;-72
2023/08/22 10:19:35;;;;;;;5.43;3.63;;;30.20;1.00;;;;;;7394150;19;20027;-70
2023/08/22 10:22:10;;;;;;;8.38;3.78;;;30.30;1.00;;;;;;7394044;19;20030;-71
2023/08/22 10:24:41;;;;;;;5.05;3.65;;;29.70;1.00;;;;;;7394615;19;20086;-70
2023/08/22 10:27:15;;;;;;;6.05;3.55;;;30.10;1.00;;;;;;7396018;19;20035;-70
2023/08/22 10:29:47;;;;;;;4.18;3.42;;;29.90;1.00;;;;;;7394187;19;20007;-71
2023/08/22 10:32:25;;;;;;;5.10;3.35;;;30.30;1.00;;;;;;7395658;19;20009;-70
2023/08/22 10:35:30;;;;;;;7.32;3.60;;;30.30;1.00;;;;;;7397209;19;20031;-70
2023/08/22 10:38:00;;;;;;;5.63;3.60;;;29.90;1.00;;;;;;7396779;19;20078;-71
2023/08/22 10:40:32;;;;;;;4.95;3.55;;;30.00;1.00;;;;;;7397268;19;20082;-71
2023/08/22 10:43:15;;;;;;;4.45;4.05;;;29.90;1.00;;;;;;7397763;19;20039;-71
2023/08/22 10:45:54;;;;;;;6.95;4.05;;;29.80;1.00;;;;;;7397324;19;20408;-71
2023/08/22 10:48:24;;;;;;;6.38;4.15;;;30.20;1.00;;;;;;7393186;19;20086;-71
2023/08/22 10:50:54;;;;;;;7.93;4.47;;;30.30;1.00;;;;;;7397344;19;20085;-72
2023/08/22 10:53:26;;;;;;;7.60;4.50;;;29.90;1.00;;;;;;7395039;19;20507;-70
2023/08/22 10:55:57;;;;;;;4.95;3.80;;;30.40;1.00;;;;;;7395976;19;20018;-71
2023/08/22 10:58:45;;;;;;;10.23;4.18;;;30.40;1.00;;;;;;7397046;19;20010;-70
2023/08/22 11:01:17;;;;;;;9.43;4.60;;;30.20;1.00;;;;;;7391826;19;20031;-70
2023/08/22 11:03:49;;;;;;;6.75;4.53;;;30.50;1.00;;;;;;7393794;19;20472;-71
2023/08/22 11:06:21;;;;;;;6.82;4.20;;;30.40;1.00;;;;;;7393814;19;20017;-70
2023/08/22 11:08:51;;;;;;;5.15;4.15;;;30.70;1.00;;;;;;7390894;19;20708;-70
2023/08/22 11:11:22;;;;;;;4.00;3.58;;;30.50;1.00;;;;;;7390175;19;20078;-70
2023/08/22 11:13:55;;;;;;;4.65;3.63;;;30.40;1.00;;;;;;7394753;19;20010;-69
2023/08/22 11:16:27;;;;;;;7.80;3.97;;;30.70;1.00;;;;;;7393521;19;20014;-71
2023/08/22 11:18:57;;;;;;;5.80;3.70;;;30.70;1.00;;;;;;7392681;19;20108;-72
2023/08/22 11:21:27;;;;;;;6.75;4.20;;;30.40;1.00;;;;;;7390339;19;20069;-71
2023/08/22 11:23:59;;;;;;;5.50;4.15;;;30.50;1.00;;;;;;7392995;19;20022;-71
2023/08/22 11:26:29;;;;;;;5.03;4.28;;;30.70;1.00;;;;;;7393141;19;20014;-70
2023/08/22 11:29:07;;;;;;;4.43;3.72;;;30.70;1.00;;;;;;7391498;19;20011;-70
2023/08/22 11:31:39;;;;;;;4.72;3.40;;;30.60;1.00;;;;;;7389868;19;20027;-71
2023/08/22 11:34:11;;;;;;;5.18;3.72;;;30.90;1.00;;;;;;7392861;19;20017;-71
2023/08/22 11:36:41;;;;;;;6.18;3.78;;;31.30;1.00;;;;;;7392594;19;20006;-71
2023/08/22 11:39:11;;;;;;;8.27;3.55;;;31.40;1.00;;;;;;7392521;19;20019;-71
2023/08/22 11:41:41;;;;;;;4.70;3.95;;;31.30;1.00;;;;;;7390074;19;20015;-70
2023/08/22 11:44:17;;;;;;;6.47;3.58;;;30.90;1.00;;;;;;7391539;19;20014;-71
2023/08/22 11:46:51;;;;;;;6.43;3.60;;;31.10;1.00;;;;;;7392975;19;20396;-69
2023/08/22 11:49:21;;;;;;;5.60;3.33;;;31.10;1.00;;;;;;7389897;19;20164;-70
2023/08/22 11:51:55;;;;;;;5.45;3.60;;;31.50;1.00;;;;;;7389339;19;20090;-70
2023/08/22 11:54:26;;;;;;;4.43;3.72;;;31.10;1.00;;;;;;7391349;19;20017;-70
2023/08/22 11:57:01;;;;;;;4.38;3.33;;;31.20;1.00;;;;;;7391406;19;20010;-70
2023/08/22 11:59:34;;;;;;;5.93;3.40;;;31.20;1.00;;;;;;7391116;19;20485;-71
2023/08/22 12:02:04;;;;;;;6.90;3.33;;;31.20;1.00;;;;;;7386610;19;20483;-70
2023/08/22 12:04:43;;;;;;;6.03;3.10;;;31.40;1.00;;;;;;7392097;19;20418;-71
2023/08/22 12:07:13;;;;;;;4.38;2.90;;;31.50;1.00;;;;;;7392852;19;20026;-76
2023/08/22 12:09:43;;;;;;;3.47;3.00;;;31.30;1.00;;;;;;7389098;19;20015;-71
2023/08/22 12:12:14;;;;;;;3.58;2.88;;;31.40;1.00;;;;;;7391379;19;20078;-71
2023/08/22 12:14:47;;;;;;;7.07;3.00;;;31.20;1.00;;;;;;7391002;19;20027;-70
2023/08/22 12:17:16;;;;;;;7.80;2.92;;;31.40;1.00;;;;;;7392926;19;20014;-69
2023/08/22 12:19:47;;;;;;;6.13;3.05;;;31.50;1.00;;;;;;7390176;19;20011;-69
2023/08/22 12:22:17;;;;;;;5.32;2.90;;;31.50;1.00;;;;;;7391403;19;20073;-72
2023/08/22 12:24:47;;;;;;;3.35;2.80;;;31.40;1.00;;;;;;7389144;19;20052;-70
2023/08/22 12:27:18;;;;;;;3.30;2.63;;;31.80;1.00;;;;;;7392091;19;20474;-70
2023/08/22 12:29:50;;;;;;;5.10;2.90;;;31.40;1.00;;;;;;7389306;19;20046;-69
2023/08/22 12:32:20;;;;;;;4.20;3.05;;;31.30;1.00;;;;;;7390618;19;20014;-69
2023/08/22 12:34:50;;;;;;;2.80;2.50;;;31.30;1.00;;;;;;7389860;19;20034;-70
2023/08/22 12:37:20;;;;;;;5.60;3.10;;;31.50;1.00;;;;;;7392552;19;20010;-70
2023/08/22 12:39:50;;;;;;;4.60;3.10;;;31.60;1.00;;;;;;7389526;19;20034;-70
2023/08/22 12:42:20;;;;;;;7.35;2.90;;;31.20;1.00;;;;;;7390610;19;20014;-70
2023/08/22 12:44:53;;;;;;;9.20;3.28;;;31.50;1.00;;;;;;7389344;19;20496;-69
2023/08/22 12:47:22;;;;;;;3.85;2.90;;;31.90;1.00;;;;;;7390897;19;20039;-70
2023/08/22 12:49:52;;;;;;;6.32;2.72;;;31.40;1.00;;;;;;7389816;19;20030;-70
2023/08/22 12:52:22;;;;;;;5.28;2.72;;;31.10;1.00;;;;;;7386707;19;20078;-69
2023/08/22 12:54:52;;;;;;;3.70;2.90;;;31.40;1.00;;;;;;7391953;19;20014;-70
2023/08/22 12:57:22;;;;;;;6.53;2.72;;;31.30;1.00;;;;;;7388528;19;20010;-70
2023/08/22 12:59:55;;;;;;;5.18;2.80;;;31.30;1.00;;;;;;7388450;19;20909;-70
2023/08/22 13:02:25;;;;;;;3.15;2.63;;;31.60;1.00;;;;;;7388622;19;20083;-69
2023/08/22 13:04:55;;;;;;;5.30;3.10;;;31.50;1.00;;;;;;7385661;19;20011;-68
2023/08/22 13:07:25;;;;;;;6.15;3.35;;;31.80;1.00;;;;;;7387926;19;20006;-68
2023/08/22 13:09:55;;;;;;;4.55;3.10;;;31.30;1.00;;;;;;7385486;19;20011;-68
2023/08/22 13:12:25;;;;;;;4.38;3.13;;;31.20;1.00;;;;;;7386321;19;20006;-69
2023/08/22 13:14:57;;;;;;;5.55;3.33;;;31.40;1.00;;;;;;7385620;19;20007;-69
2023/08/22 13:17:27;;;;;;;5.18;3.13;;;31.90;1.00;;;;;;7390663;19;20006;-70